Time;durP1;ratioP1;P1;durP2;ratioP2;P2;SDS_P1;SDS_P2;PMS_P1;PMS_P2;Temp;Humidity;BMP_temperature;BMP_pressure;BME280_temperature;BME280_humidity;BME280_pressure;Samples;Min_cycle;Max_cycle;Signal;HPM_P1;HPM_P2
2023/08/08 00:02:00;;;;;;;;;0.00;0.00;;;;;-143.90;83.55;74570.66;4981572;28;101917;-82
2023/08/08 00:04:36;;;;;;;;;1.00;0.00;;;;;-143.90;83.51;74572.72;4978517;28;102054;-82
2023/08/08 00:07:25;;;;;;;;;0.00;0.00;;;;;-143.90;82.86;74585.13;4971941;28;103247;-82
2023/08/08 00:10:15;;;;;;;;;0.00;0.00;;;;;-143.90;83.22;74589.25;4979908;28;103077;-82
2023/08/08 00:13:14;;;;;;;;;1.00;0.00;;;;;-143.90;82.48;74589.25;4978931;28;102513;-84
2023/08/08 00:16:02;;;;;;;;;0.00;0.00;;;;;-143.90;82.69;74589.25;4977536;28;102230;-82
2023/08/08 00:18:38;;;;;;;;;1.00;1.00;;;;;-143.90;82.13;74589.25;4977271;28;102587;-83
2023/08/08 00:21:06;;;;;;;;;1.00;0.00;;;;;-143.90;82.60;74587.19;4980037;28;103706;-82
2023/08/08 00:23:33;;;;;;;;;0.00;0.00;;;;;-143.90;82.56;74589.25;4977713;28;103931;-82
2023/08/08 00:26:00;;;;;;;;;0.00;0.00;;;;;-143.90;82.67;74593.38;4978767;28;102115;-82
2023/08/08 00:28:27;;;;;;;;;0.00;0.00;;;;;-143.90;83.21;74593.38;4979783;28;103056;-81
2023/08/08 00:30:56;;;;;;;;;0.00;0.00;;;;;-143.90;83.51;74585.13;4981472;28;104244;-83
2023/08/08 00:33:25;;;;;;;;;0.00;0.00;;;;;-143.90;82.67;74597.53;4979178;28;102133;-82
2023/08/08 00:35:53;;;;;;;;;0.00;0.00;;;;;-143.90;83.22;74599.59;4980485;28;101935;-82
2023/08/08 00:38:20;;;;;;;;;0.00;0.00;;;;;-143.90;83.24;74597.53;4983398;28;102520;-83
2023/08/08 00:40:47;;;;;;;;;0.00;0.00;;;;;-143.90;82.86;74599.59;4979264;28;104129;-82
2023/08/08 00:43:14;;;;;;;;;0.00;0.00;;;;;-143.90;82.55;74601.66;4979429;28;102233;-82
2023/08/08 00:45:43;;;;;;;;;0.00;0.00;;;;;-143.90;82.81;74605.78;4980325;28;102430;-82
2023/08/08 00:48:11;;;;;;;;;0.00;0.00;;;;;-143.90;82.81;74614.06;4982195;28;102373;-82
2023/08/08 00:50:42;;;;;;;;;1.00;0.00;;;;;-143.90;82.38;74609.94;4975435;28;104118;-83
2023/08/08 00:53:09;;;;;;;;;0.00;0.00;;;;;-143.90;82.43;74620.25;4980243;28;102371;-82
2023/08/08 00:55:37;;;;;;;;;0.00;0.00;;;;;-143.90;82.63;74618.19;4979787;28;101832;-81
2023/08/08 00:58:04;;;;;;;;;0.00;0.00;;;;;-143.90;81.96;74622.34;4982570;28;102524;-83
2023/08/08 01:00:31;;;;;;;;;0.00;0.00;;;;;-143.90;81.82;74626.47;4979435;28;104075;-82
2023/08/08 01:02:58;;;;;;;;;0.00;0.00;;;;;-143.90;81.71;74634.72;4979272;28;102407;-82
2023/08/08 01:05:44;;;;;;;;;0.00;0.00;;;;;-143.90;81.80;74636.81;4976413;28;102364;-82
2023/08/08 01:08:30;;;;;;;;;0.75;0.00;;;;;-143.90;82.07;74643.00;4976067;28;102376;-82
2023/08/08 01:11:24;;;;;;;;;0.00;0.00;;;;;-143.90;81.33;74638.88;4970652;28;103254;-82
2023/08/08 01:14:14;;;;;;;;;0.00;0.00;;;;;-143.90;81.14;74638.88;4981727;28;101977;-82
2023/08/08 01:17:00;;;;;;;;;0.00;0.00;;;;;-143.90;81.19;74638.88;4966096;28;102440;-82
2023/08/08 01:19:45;;;;;;;;;0.00;0.00;;;;;-143.90;80.73;74647.13;4978769;28;102586;-83
2023/08/08 01:22:52;;;;;;;;;0.00;0.00;;;;;-143.90;80.60;74655.41;4984612;28;104430;-82
2023/08/08 01:25:20;;;;;;;;;0.00;0.00;;;;;-143.90;80.09;74663.66;4971989;28;102415;-81
2023/08/08 01:27:47;;;;;;;;;0.00;0.00;;;;;-143.90;80.66;74667.81;4983293;28;102352;-82
2023/08/08 01:30:15;;;;;;;;;0.00;0.00;;;;;-143.90;80.93;74667.81;4978881;28;102220;-83
2023/08/08 01:32:42;;;;;;;;;0.00;0.00;;;;;-143.90;80.51;74676.06;4981116;28;104029;-82
2023/08/08 01:35:09;;;;;;;;;0.00;0.00;;;;;-143.90;80.84;74676.06;4982293;28;102610;-83
2023/08/08 01:37:43;;;;;;;;;0.00;0.00;;;;;-143.90;80.56;74682.28;4982365;28;102248;-83
2023/08/08 01:40:15;;;;;;;;;0.00;0.00;;;;;-143.90;80.47;74686.41;4976052;28;102780;-83
2023/08/08 01:42:46;;;;;;;;;0.00;0.00;;;;;-143.90;80.91;74686.41;4980198;28;103675;-83
2023/08/08 01:45:15;;;;;;;;;0.00;0.00;;;;;-143.90;80.53;74690.53;4980291;28;102249;-83
2023/08/08 01:47:42;;;;;;;;;0.00;0.00;;;;;-143.90;81.16;74700.88;4968834;28;102854;-83
2023/08/08 01:50:09;;;;;;;;;0.00;0.00;;;;;-143.90;81.15;74707.09;4980215;28;102459;-82
2023/08/08 01:52:37;;;;;;;;;0.00;0.00;;;;;-143.90;81.66;74713.28;4978463;28;103940;-82
2023/08/08 01:55:04;;;;;;;;;0.00;0.00;;;;;-143.90;81.93;74721.56;4980546;28;103399;-83
2023/08/08 01:57:31;;;;;;;;;0.00;0.00;;;;;-143.90;81.90;74731.88;4982908;28;101913;-83
2023/08/08 01:59:58;;;;;;;;;0.00;0.00;;;;;-143.90;82.42;74733.97;4983258;28;101958;-82
2023/08/08 02:02:25;;;;;;;;;0.00;0.00;;;;;-143.90;81.77;74740.16;4980099;28;104205;-82
2023/08/08 02:04:53;;;;;;;;;0.00;0.00;;;;;-143.90;82.08;74746.34;4975533;28;101932;-82
2023/08/08 02:07:20;;;;;;;;;0.00;0.00;;;;;-143.90;82.76;74754.63;4982054;28;103820;-82
2023/08/08 02:09:47;;;;;;;;;1.00;0.00;;;;;-143.90;83.31;74764.97;4980238;28;103021;-82
2023/08/08 02:12:14;;;;;;;;;0.00;0.00;;;;;-143.90;83.75;74764.97;4981027;28;104060;-82
2023/08/08 02:14:41;;;;;;;;;0.00;0.00;;;;;-143.90;84.26;74764.97;4980875;28;102237;-82
2023/08/08 02:17:08;;;;;;;;;0.00;0.00;;;;;-143.90;84.23;74771.16;4971546;28;102374;-82
2023/08/08 02:19:35;;;;;;;;;0.00;0.00;;;;;-143.90;84.73;74767.03;4982487;28;102558;-83
2023/08/08 02:22:02;;;;;;;;;0.00;0.00;;;;;-143.90;84.71;74762.91;4978094;28;104107;-83
2023/08/08 02:24:29;;;;;;;;;0.00;0.00;;;;;-143.90;84.06;74771.16;4977653;28;102258;-82
2023/08/08 02:26:56;;;;;;;;;0.00;0.00;;;;;-143.90;84.24;74773.22;4979115;28;102224;-83
2023/08/08 02:29:23;;;;;;;;;0.00;0.00;;;;;-143.90;84.14;74773.22;4980992;28;102747;-83
2023/08/08 02:31:50;;;;;;;;;1.75;0.75;;;;;-143.90;84.58;74787.69;4977671;28;104005;-82
2023/08/08 02:34:17;;;;;;;;;0.25;0.25;;;;;-143.90;84.89;74789.78;4981643;28;101998;-83
2023/08/08 02:36:44;;;;;;;;;0.75;0.00;;;;;-143.90;84.94;74791.84;4979592;28;102426;-82
2023/08/08 02:39:11;;;;;;;;;0.50;0.50;;;;;-143.90;84.63;74791.84;4979029;28;102085;-82
2023/08/08 02:41:38;;;;;;;;;0.00;0.00;;;;;-143.90;84.29;74787.69;4982366;28;104225;-82
2023/08/08 02:44:06;;;;;;;;;0.00;0.00;;;;;-143.90;84.48;74802.16;4980087;28;102085;-83
2023/08/08 02:46:33;;;;;;;;;0.25;0.25;;;;;-143.90;84.99;74798.03;4977181;28;102221;-82
2023/08/08 02:49:01;;;;;;;;;1.00;1.00;;;;;-143.90;84.14;74812.50;4980900;28;103024;-83
2023/08/08 02:51:28;;;;;;;;;0.00;0.00;;;;;-143.90;85.06;74808.38;4976788;28;104047;-83
2023/08/08 02:53:55;;;;;;;;;0.00;0.00;;;;;-143.90;84.22;74810.44;4979424;28;102800;-82
2023/08/08 02:56:22;;;;;;;;;0.00;0.00;;;;;-143.90;84.73;74822.84;4978841;28;102607;-83
2023/08/08 02:58:49;;;;;;;;;0.00;0.00;;;;;-143.90;84.96;74822.84;4980256;28;102637;-82
2023/08/08 03:01:16;;;;;;;;;0.00;0.00;;;;;-143.90;84.92;74820.78;4977076;28;103968;-83
2023/08/08 03:03:43;;;;;;;;;0.50;0.00;;;;;-143.90;84.84;74829.03;4979556;28;102294;-83
2023/08/08 03:06:10;;;;;;;;;0.00;0.00;;;;;-143.90;85.27;74833.19;4981118;28;102424;-82
2023/08/08 03:08:37;;;;;;;;;0.00;0.00;;;;;-143.90;85.13;74843.53;4979981;28;102058;-82
2023/08/08 03:11:04;;;;;;;;;0.00;0.00;;;;;-143.90;85.31;74839.38;4977695;28;104105;-82
2023/08/08 03:13:31;;;;;;;;;0.75;0.00;;;;;-143.90;85.47;74849.72;4974350;28;102145;-83
2023/08/08 03:15:58;;;;;;;;;0.00;0.00;;;;;-143.90;85.89;74843.53;4979069;28;102301;-82
2023/08/08 03:18:25;;;;;;;;;0.50;0.50;;;;;-143.90;85.49;74851.78;4981520;28;102605;-82
2023/08/08 03:20:53;;;;;;;;;0.00;0.00;;;;;-143.90;85.65;74853.84;4978321;28;104353;-82
2023/08/08 03:23:20;;;;;;;;;1.00;1.00;;;;;-143.90;85.90;74849.72;4978753;28;102448;-83
2023/08/08 03:25:47;;;;;;;;;0.75;0.00;;;;;-143.90;85.65;74858.00;4983240;28;102100;-83
2023/08/08 03:28:14;;;;;;;;;1.00;1.00;;;;;-143.90;85.83;74855.91;4984213;28;102305;-83
2023/08/08 03:30:41;;;;;;;;;0.00;0.00;;;;;-143.90;86.00;74866.25;4980322;28;104430;-82
2023/08/08 03:33:08;;;;;;;;;1.00;1.00;;;;;-143.90;86.38;74868.31;4981588;28;101932;-82
2023/08/08 03:35:36;;;;;;;;;1.00;1.00;;;;;-143.90;86.09;74864.19;4984014;28;102482;-84
2023/08/08 03:38:03;;;;;;;;;1.00;1.00;;;;;-143.90;85.74;74862.13;4981005;28;102313;-86
2023/08/08 03:40:31;;;;;;;;;0.00;0.00;;;;;-143.90;85.77;74870.38;4981995;28;104015;-86
2023/08/08 03:42:58;;;;;;;;;1.00;1.00;;;;;-143.90;85.72;74868.31;4977582;28;102512;-82
2023/08/08 03:45:25;;;;;;;;;1.00;1.00;;;;;-143.90;85.94;74864.19;4974091;28;102609;-83
2023/08/08 03:47:52;;;;;;;;;0.25;0.00;;;;;-143.90;85.62;74864.19;4981639;28;102515;-82
2023/08/08 03:50:19;;;;;;;;;0.00;0.00;;;;;-143.90;85.74;74864.19;4981393;28;103651;-82
2023/08/08 03:52:47;;;;;;;;;1.00;1.00;;;;;-143.90;85.00;74866.25;4980228;28;102277;-85
2023/08/08 03:55:14;;;;;;;;;1.25;1.25;;;;;-143.90;84.92;74866.25;4984460;28;102187;-83
2023/08/08 03:57:42;;;;;;;;;0.75;0.00;;;;;-143.90;84.84;74866.25;4984193;28;102369;-82
2023/08/08 04:00:09;;;;;;;;;1.50;1.50;;;;;-143.90;84.45;74864.19;4980937;28;104008;-82
2023/08/08 04:02:36;;;;;;;;;1.00;1.00;;;;;-143.90;84.55;74862.13;4980364;28;102026;-82
2023/08/08 04:05:04;;;;;;;;;0.75;0.50;;;;;-143.90;84.28;74866.25;4980231;28;102446;-83
2023/08/08 04:07:31;;;;;;;;;1.00;1.00;;;;;-143.90;84.85;74860.06;4978410;28;102341;-82
2023/08/08 04:10:00;;;;;;;;;1.50;0.75;;;;;-143.90;84.02;74860.06;4981761;28;104451;-83
2023/08/08 04:12:27;;;;;;;;;0.00;0.00;;;;;-143.90;84.31;74858.00;4981227;28;102173;-84
2023/08/08 04:14:54;;;;;;;;;1.00;1.00;;;;;-143.90;83.82;74845.59;4963797;28;102253;-82
2023/08/08 04:17:24;;;;;;;;;0.00;0.00;;;;;-143.90;83.52;74845.59;4961368;28;104140;-84
2023/08/08 04:19:54;;;;;;;;;1.00;1.00;;;;;-143.90;83.14;74860.06;4980927;28;104203;-83
2023/08/08 04:22:21;;;;;;;;;1.50;1.00;;;;;-143.90;83.03;74858.00;4963955;28;102401;-83
2023/08/08 04:24:48;;;;;;;;;1.00;1.00;;;;;-143.90;82.93;74858.00;4982102;28;102843;-82
2023/08/08 04:27:15;;;;;;;;;0.50;0.50;;;;;-143.90;82.46;74845.59;4977287;28;103253;-83
2023/08/08 04:29:42;;;;;;;;;0.00;0.00;;;;;-143.90;82.65;74851.78;4965209;28;103443;-84
2023/08/08 04:32:09;;;;;;;;;1.00;1.00;;;;;-143.90;81.81;74849.72;4964009;28;102371;-81
2023/08/08 04:34:36;;;;;;;;;2.00;2.00;;;;;-143.90;82.09;74839.38;4978258;28;102119;-82
2023/08/08 04:37:03;;;;;;;;;1.75;1.75;;;;;-143.90;81.62;74833.19;4961848;28;102269;-83
2023/08/08 04:39:31;;;;;;;;;1.25;1.00;;;;;-143.90;81.93;74835.25;4981041;28;103032;-81
2023/08/08 04:41:58;;;;;;;;;2.00;2.00;;;;;-143.90;81.07;74831.13;4980313;28;102442;-82
2023/08/08 04:44:25;;;;;;;;;1.25;1.25;;;;;-143.90;81.31;74820.78;4985239;28;102290;-82
2023/08/08 04:46:52;;;;;;;;;1.50;1.25;;;;;-143.90;81.23;74829.03;4985614;28;102126;-82
2023/08/08 04:49:20;;;;;;;;;2.00;2.00;;;;;-143.90;81.06;74837.31;4978291;28;104309;-82
2023/08/08 04:51:47;;;;;;;;;2.25;2.00;;;;;-143.90;81.34;74835.25;4961902;28;102008;-82
2023/08/08 04:54:14;;;;;;;;;3.00;2.00;;;;;-143.90;80.75;74841.44;4982237;28;102558;-81
2023/08/08 04:56:41;;;;;;;;;2.75;2.00;;;;;-143.90;80.39;74843.53;4980102;28;102459;-82
2023/08/08 04:59:08;;;;;;;;;1.00;1.00;;;;;-143.90;80.53;74835.25;4980944;28;103999;-82
2023/08/08 05:01:37;;;;;;;;;2.50;2.00;;;;;-143.90;81.31;74820.78;4982847;28;102164;-81
2023/08/08 05:04:05;;;;;;;;;2.75;2.25;;;;;-143.90;79.99;74808.38;4983174;28;102018;-82
2023/08/08 05:06:32;;;;;;;;;2.50;2.25;;;;;-143.90;79.62;74785.63;4984710;28;102311;-81
2023/08/08 05:08:59;;;;;;;;;2.00;2.00;;;;;-143.90;79.41;74787.69;4982856;28;103711;-80
2023/08/08 05:11:26;;;;;;;;;2.75;2.00;;;;;-143.90;79.52;74791.84;4965418;28;102250;-81
2023/08/08 05:13:53;;;;;;;;;2.25;2.00;;;;;-143.90;80.16;74798.03;4983767;28;102676;-82
2023/08/08 05:16:20;;;;;;;;;2.75;2.00;;;;;-143.90;79.51;74804.25;4979581;28;102923;-81
2023/08/08 05:18:47;;;;;;;;;3.00;2.00;;;;;-143.90;80.01;74802.16;4980025;28;104452;-82
2023/08/08 05:21:14;;;;;;;;;2.25;2.00;;;;;-143.90;79.80;74783.56;4980343;28;102639;-81
2023/08/08 05:23:41;;;;;;;;;1.00;1.00;;;;;-143.90;79.14;74771.16;4967445;28;102417;-81
2023/08/08 05:26:08;;;;;;;;;2.50;1.00;;;;;-143.90;79.11;74756.69;4982392;28;102494;-82
2023/08/08 05:28:35;;;;;;;;;1.00;1.00;;;;;-143.90;78.43;74758.75;4982878;28;103684;-83
2023/08/08 05:31:02;;;;;;;;;1.00;1.00;;;;;-143.90;77.54;74746.34;4978436;28;101902;-81
2023/08/08 05:33:29;;;;;;;;;1.00;1.00;;;;;-143.90;76.56;74750.50;4984380;28;102287;-81
2023/08/08 05:35:59;;;;;;;;;3.00;3.00;;;;;-143.90;76.20;74733.97;4964697;28;102351;-83
2023/08/08 05:38:26;;;;;;;;;2.00;2.00;;;;;-143.90;75.84;74723.63;4983992;28;104253;-81
2023/08/08 05:40:53;;;;;;;;;3.50;2.75;;;;;-143.90;75.98;74719.47;4975957;28;102034;-82
2023/08/08 05:43:21;;;;;;;;;3.00;2.75;;;;;-143.90;75.94;74692.63;4982935;28;103436;-82
2023/08/08 05:45:48;;;;;;;;;2.00;2.00;;;;;-143.90;74.63;74688.47;4982826;28;102247;-82
2023/08/08 05:48:15;;;;;;;;;2.00;2.00;;;;;-143.90;74.02;74688.47;4982044;28;104360;-81
2023/08/08 05:50:44;;;;;;;;;2.50;2.00;;;;;-143.90;75.01;74702.94;4980436;28;102272;-84
2023/08/08 05:53:11;;;;;;;;;2.00;2.00;;;;;-143.90;75.34;74709.16;4975942;28;102639;-83
2023/08/08 05:55:41;;;;;;;;;3.25;1.75;;;;;-143.90;75.46;74700.88;4980272;28;102059;-84
2023/08/08 05:58:09;;;;;;;;;2.00;2.00;;;;;-143.90;75.93;74698.81;4979324;28;104059;-83
2023/08/08 06:00:37;;;;;;;;;2.00;2.00;;;;;-143.90;74.31;74711.22;4978210;28;103419;-84
2023/08/08 06:03:05;;;;;;;;;2.00;2.00;;;;;-143.90;74.87;74709.16;4977241;28;102164;-86
2023/08/08 06:05:32;;;;;;;;;3.00;2.75;;;;;-143.90;74.76;74713.28;4983195;28;102284;-84
2023/08/08 06:07:59;;;;;;;;;5.00;4.00;;;;;-143.90;74.57;74740.16;4981356;28;103995;-83
2023/08/08 06:10:26;;;;;;;;;2.00;2.00;;;;;-143.90;74.75;74717.41;4978906;28;106195;-82
2023/08/08 06:12:53;;;;;;;;;3.75;3.00;;;;;-143.90;72.79;74676.06;4980861;28;103167;-83
2023/08/08 06:15:20;;;;;;;;;2.00;2.00;;;;;-143.90;72.92;74624.41;4980473;28;102138;-82
2023/08/08 06:17:47;;;;;;;;;1.00;1.00;;;;;-143.90;71.06;74581.00;4978250;28;104373;-85
2023/08/08 06:20:15;;;;;;;;;2.50;2.50;;;;;-143.90;68.99;74562.38;4978814;28;101900;-83
2023/08/08 06:22:42;;;;;;;;;1.00;1.00;;;;;-143.90;67.61;74545.84;4977992;28;102265;-85
2023/08/08 06:25:10;;;;;;;;;2.00;2.00;;;;;-143.90;68.11;74521.03;4981363;28;102228;-86
2023/08/08 06:27:38;;;;;;;;;2.00;2.00;;;;;-143.90;66.98;74500.38;4980402;28;104057;-83
2023/08/08 06:30:05;;;;;;;;;2.00;2.00;;;;;-143.90;67.22;74477.63;4983900;28;102215;-85
2023/08/08 06:32:33;;;;;;;;;4.67;3.00;;;;;-143.90;65.86;74500.38;4980891;28;102226;-87
2023/08/08 06:35:00;;;;;;;;;3.00;2.00;;;;;-143.90;65.86;74473.50;4984821;28;102346;-88
2023/08/08 06:37:27;;;;;;;;;2.00;1.00;;;;;-143.90;65.29;74438.38;4980769;28;104279;-85
2023/08/08 06:39:54;;;;;;;;;1.00;1.00;;;;;-143.90;64.38;74434.22;4965393;28;102332;-84
2023/08/08 06:42:24;;;;;;;;;2.00;2.00;;;;;-143.90;63.04;74452.84;4965668;28;102082;-86
2023/08/08 06:44:51;;;;;;;;;3.00;2.00;;;;;-143.90;63.87;74461.09;4984842;28;102362;-86
2023/08/08 06:47:18;;;;;;;;;2.67;2.00;;;;;-143.90;63.39;74440.44;4964126;28;104074;-86
2023/08/08 06:49:45;;;;;;;;;1.67;1.67;;;;;-143.90;63.73;74401.16;4981860;28;102898;-85
2023/08/08 06:52:12;;;;;;;;;1.00;1.00;;;;;-143.90;63.51;74394.94;4964929;28;102226;-85
2023/08/08 06:54:39;;;;;;;;;3.00;2.67;;;;;-143.90;62.71;74411.50;4981742;28;102175;-85
2023/08/08 06:57:07;;;;;;;;;3.00;2.00;;;;;-143.90;62.53;74423.88;4977743;28;104230;-84
2023/08/08 06:59:34;;;;;;;;;2.00;2.00;;;;;-143.90;63.10;74415.63;4980106;28;101971;-85
2023/08/08 07:02:01;;;;;;;;;2.67;2.33;;;;;-143.90;62.86;74415.63;4985325;28;102468;-86
2023/08/08 07:04:28;;;;;;;;;4.00;3.00;;;;;-143.90;61.81;74401.16;4975921;28;102300;-85
2023/08/08 07:06:55;;;;;;;;;2.00;1.00;;;;;-143.90;60.68;74378.41;4982630;28;103014;-84
2023/08/08 07:09:22;;;;;;;;;2.00;2.00;;;;;-143.90;60.97;74380.47;4986745;28;102124;-85
2023/08/08 07:11:49;;;;;;;;;2.33;2.33;;;;;-143.90;60.13;74370.16;4978997;28;102162;-87
2023/08/08 07:14:16;;;;;;;;;2.00;2.00;;;;;-143.90;58.64;74366.00;4985860;28;102248;-82
2023/08/08 07:16:43;;;;;;;;;2.00;1.00;;;;;-143.90;59.57;74349.47;4981480;28;104013;-82
2023/08/08 07:19:11;;;;;;;;;1.00;1.00;;;;;-143.90;59.42;74341.22;4982303;28;103331;-86
2023/08/08 07:21:38;;;;;;;;;1.67;1.67;;;;;-143.90;59.03;74366.00;4984937;28;102208;-84
2023/08/08 07:24:05;;;;;;;;;1.00;1.00;;;;;-143.90;60.69;74347.41;4987178;28;103547;-87
2023/08/08 07:26:32;;;;;;;;;2.00;2.00;;;;;-143.90;60.48;74349.47;4982874;28;103987;-89
2023/08/08 07:28:59;;;;;;;;;1.33;1.33;;;;;-143.90;61.22;74339.16;4986100;28;101958;-83
2023/08/08 07:31:26;;;;;;;;;2.00;2.00;;;;;-143.90;59.42;74330.88;4985313;28;102216;-86
2023/08/08 07:33:54;;;;;;;;;2.67;2.67;;;;;-143.90;60.03;74343.28;4986555;28;102113;-83
2023/08/08 07:36:21;;;;;;;;;1.00;1.00;;;;;-143.90;57.97;74339.16;4965876;28;104311;-86
2023/08/08 07:38:47;;;;;;;;;2.33;1.33;;;;;-143.90;58.30;74341.22;4983622;28;103094;-88
2023/08/08 07:41:17;;;;;;;;;1.67;1.67;;;;;-143.90;56.85;74361.88;4970516;28;103018;-85
2023/08/08 07:43:44;;;;;;;;;1.00;1.00;;;;;-143.90;58.64;74380.47;4985473;28;102178;-86
2023/08/08 07:46:12;;;;;;;;;2.00;1.67;;;;;-143.90;58.90;74399.09;4982537;28;104077;-88
2023/08/08 07:48:40;;;;;;;;;2.00;2.00;;;;;-143.90;59.81;74378.41;4967564;28;102135;-88
2023/08/08 07:51:07;;;;;;;;;2.00;1.67;;;;;-143.90;58.03;74345.34;4981975;28;102208;-86
2023/08/08 07:53:34;;;;;;;;;1.33;1.00;;;;;-143.90;57.72;74308.13;4984911;28;102121;-87
2023/08/08 07:56:01;;;;;;;;;2.00;2.00;;;;;-143.90;57.26;74293.66;4966963;28;104222;-84
2023/08/08 07:58:28;;;;;;;;;1.33;1.00;;;;;-143.90;55.43;74289.53;4979514;28;103068;-86
2023/08/08 08:00:55;;;;;;;;;3.00;1.67;;;;;-143.90;55.68;74308.13;4983235;28;102424;-87
2023/08/08 08:03:22;;;;;;;;;1.00;1.00;;;;;-143.90;57.34;74337.06;4983848;28;102401;-84
2023/08/08 08:05:50;;;;;;;;;1.00;1.00;;;;;-143.90;57.57;74328.81;4980870;28;103881;-85
2023/08/08 08:08:17;;;;;;;;;1.00;1.00;;;;;-143.90;58.70;74339.16;4984386;28;102254;-86
2023/08/08 08:10:45;;;;;;;;;2.00;2.00;;;;;-143.90;55.10;74376.34;4964716;28;102247;-85
2023/08/08 08:13:12;;;;;;;;;2.00;2.00;;;;;-143.90;56.26;74388.75;4985100;28;103103;-89
2023/08/08 08:15:39;;;;;;;;;1.00;1.00;;;;;-143.90;57.24;74399.09;4982733;28;104049;-87
2023/08/08 08:18:06;;;;;;;;;2.00;2.00;;;;;-143.90;58.81;74399.09;4981323;28;102285;-86
2023/08/08 08:20:33;;;;;;;;;3.00;2.00;;;;;-143.90;57.96;74384.63;4981555;28;102214;-85
2023/08/08 08:23:01;;;;;;;;;1.00;1.00;;;;;-143.90;56.33;74386.69;4983990;28;102233;-83
2023/08/08 08:25:28;;;;;;;;;2.00;2.00;;;;;-143.90;57.23;74376.34;4982290;28;104252;-89
2023/08/08 08:27:55;;;;;;;;;3.00;3.00;;;;;-143.90;56.11;74386.69;4981355;28;102426;-85
2023/08/08 08:30:25;;;;;;;;;2.33;1.67;;;;;-143.90;57.01;74399.09;4981163;28;102370;-85
2023/08/08 08:32:52;;;;;;;;;2.00;2.00;;;;;-143.90;59.36;74411.50;4984965;28;102655;-79
2023/08/08 08:35:20;;;;;;;;;1.67;1.00;;;;;-143.90;57.84;74415.63;4966947;28;104007;-87
2023/08/08 08:37:47;;;;;;;;;2.33;1.67;;;;;-143.90;56.60;74394.94;4983826;28;102248;-87
2023/08/08 08:40:14;;;;;;;;;4.00;2.00;;;;;-143.90;55.39;74382.56;4984075;28;102094;-86
2023/08/08 08:42:43;;;;;;;;;1.00;0.67;;;;;-143.90;54.36;74343.28;4985006;28;102103;-87
2023/08/08 08:45:12;;;;;;;;;1.33;1.00;;;;;-143.90;54.82;74343.28;4980667;28;104034;-86
2023/08/08 08:47:42;;;;;;;;;2.00;1.00;;;;;-143.90;54.86;74345.34;4965045;28;101977;-86
2023/08/08 08:50:10;;;;;;;;;2.00;2.00;;;;;-143.90;51.79;74353.63;4979387;28;102649;-89
2023/08/08 08:52:37;;;;;;;;;2.00;1.00;;;;;-143.90;50.48;74357.75;4982188;28;102295;-86
2023/08/08 08:55:06;;;;;;;;;1.67;1.00;;;;;-143.90;52.97;74366.00;4978620;28;103945;-85
2023/08/08 08:57:35;;;;;;;;;1.00;1.00;;;;;-143.90;55.02;74345.34;4983454;28;102267;-87
2023/08/08 09:00:03;;;;;;;;;2.33;2.00;;;;;-143.90;54.31;74328.81;4982630;28;102349;-90
2023/08/08 09:02:30;;;;;;;;;2.00;2.00;;;;;-143.90;54.21;74324.69;4980647;28;102040;-87
2023/08/08 09:05:01;;;;;;;;;1.67;1.67;;;;;-143.90;51.43;74332.94;4979044;28;104143;-88
2023/08/08 09:07:31;;;;;;;;;2.67;1.00;;;;;-143.90;53.13;74320.53;4979586;28;101917;-85
2023/08/08 09:09:58;;;;;;;;;2.00;2.00;;;;;-143.90;51.29;74332.94;4981976;28;102146;-86
2023/08/08 09:12:31;;;;;;;;;2.00;2.00;;;;;-143.90;51.90;74322.59;4968223;28;102403;-84
2023/08/08 09:14:58;;;;;;;;;3.33;2.00;;;;;-143.90;51.97;74316.41;4982193;28;103994;-85
2023/08/08 09:17:26;;;;;;;;;1.00;1.00;;;;;-143.90;52.46;74320.53;4982725;28;102057;-85
2023/08/08 09:20:10;;;;;;;;;3.00;2.00;;;;;-143.90;50.96;74335.00;4983523;28;102190;-84
2023/08/08 09:22:37;;;;;;;;;3.00;3.00;;;;;-143.90;51.19;74341.22;4985783;28;102495;-87
2023/08/08 09:25:06;;;;;;;;;1.67;1.67;;;;;-143.90;51.78;74324.69;4979867;28;104139;-85
2023/08/08 09:27:34;;;;;;;;;1.00;1.00;;;;;-143.90;53.93;74312.28;4979781;28;102668;-85
2023/08/08 09:30:02;;;;;;;;;1.33;1.33;;;;;-143.90;54.33;74308.13;4980701;28;101950;-84
2023/08/08 09:32:33;;;;;;;;;3.00;3.00;;;;;-143.90;54.44;74324.69;4981917;28;102138;-85
2023/08/08 09:35:00;;;;;;;;;2.00;2.00;;;;;-143.90;53.59;74351.53;4976879;28;104732;-85
2023/08/08 09:37:28;;;;;;;;;2.00;2.00;;;;;-143.90;53.99;74374.28;4970551;28;102321;-86
2023/08/08 09:40:00;;;;;;;;;2.00;2.00;;;;;-143.90;54.56;74388.75;4978571;28;102429;-85
2023/08/08 09:42:27;;;;;;;;;1.67;1.67;;;;;-143.90;55.44;74403.22;4979796;28;102167;-90
2023/08/08 09:44:56;;;;;;;;;3.00;3.00;;;;;-143.90;54.61;74405.28;4983752;28;104167;-85
2023/08/08 09:47:30;;;;;;;;;2.00;2.00;;;;;-143.90;52.90;74411.50;4983646;28;102141;-90
2023/08/08 09:50:04;;;;;;;;;1.00;1.00;;;;;-143.90;54.41;74409.41;4962255;28;102266;-88
2023/08/08 09:52:35;;;;;;;;;2.00;1.00;;;;;-143.90;55.05;74392.88;4984611;28;102411;-84
2023/08/08 09:55:03;;;;;;;;;2.67;2.00;;;;;-143.90;56.70;74399.09;4964036;28;104029;-87
2023/08/08 09:57:30;;;;;;;;;3.00;2.00;;;;;-143.90;54.97;74407.34;4980818;28;102332;-87
2023/08/08 09:59:57;;;;;;;;;3.00;2.00;;;;;-143.90;56.05;74417.69;4981224;28;102265;-86
2023/08/08 10:02:25;;;;;;;;;1.00;1.00;;;;;-143.90;56.32;74423.88;4981448;28;102494;-89
2023/08/08 10:04:53;;;;;;;;;2.33;2.00;;;;;-143.90;56.89;74430.09;4981314;28;102804;-87
2023/08/08 10:07:22;;;;;;;;;3.00;1.00;;;;;-143.90;56.46;74430.09;4978204;28;102153;-85
2023/08/08 10:09:50;;;;;;;;;2.00;1.67;;;;;-143.90;56.67;74409.41;4982291;28;102015;-85
2023/08/08 10:12:17;;;;;;;;;2.00;2.00;;;;;-143.90;57.26;74388.75;4962647;28;102979;-85
2023/08/08 10:14:45;;;;;;;;;2.67;2.67;;;;;-143.90;57.38;74392.88;4981006;28;103672;-88
2023/08/08 10:17:15;;;;;;;;;2.33;2.00;;;;;-143.90;56.47;74394.94;4978828;28;102431;-85
2023/08/08 10:19:54;;;;;;;;;3.00;3.00;;;;;-143.90;56.63;74399.09;4980178;28;102018;-86
2023/08/08 10:22:24;;;;;;;;;2.33;2.00;;;;;-143.90;56.58;74390.81;4982160;28;102164;-84
2023/08/08 10:24:53;;;;;;;;;1.67;1.67;;;;;-143.90;56.92;74372.22;4979973;28;104051;-85
2023/08/08 10:27:38;;;;;;;;;2.00;1.33;;;;;-143.90;56.04;74345.34;4979863;28;101933;-83
2023/08/08 10:30:10;;;;;;;;;2.00;2.00;;;;;-143.90;53.66;74337.06;4980038;28;101920;-86
2023/08/08 10:32:42;;;;;;;;;2.00;2.00;;;;;-143.90;52.75;74320.53;4978844;28;103100;-86
2023/08/08 10:35:11;;;;;;;;;1.00;1.00;;;;;-143.90;51.13;74312.28;4978444;28;103757;-82
2023/08/08 10:37:39;;;;;;;;;2.33;2.00;;;;;-143.90;51.75;74308.13;4979961;28;102198;-83
2023/08/08 10:40:07;;;;;;;;;2.00;1.33;;;;;-143.90;51.72;74277.13;4975707;28;102461;-85
2023/08/08 10:42:42;;;;;;;;;2.00;2.00;;;;;-143.90;51.95;74237.88;4981338;28;102284;-85
2023/08/08 10:45:14;;;;;;;;;2.00;2.00;;;;;-143.90;51.90;74194.47;4977705;28;103976;-88
2023/08/08 10:47:42;;;;;;;;;2.00;2.00;;;;;-143.90;52.46;74155.19;4977526;28;101970;-84
2023/08/08 10:50:11;;;;;;;;;3.00;3.00;;;;;-143.90;50.97;74144.84;4962515;28;102295;-88
2023/08/08 10:52:52;;;;;;;;;3.67;3.33;;;;;-143.90;52.31;74126.25;4986097;28;102349;-85
2023/08/08 10:55:20;;;;;;;;;3.00;3.00;;;;;-143.90;50.06;74122.13;4984227;28;104019;-88
2023/08/08 10:58:08;;;;;;;;;3.00;3.00;;;;;-143.90;50.03;74149.00;4985941;28;101794;-84
2023/08/08 11:00:36;;;;;;;;;6.00;5.00;;;;;-143.90;50.94;74184.13;4986848;28;102184;-86
2023/08/08 11:03:06;;;;;;;;;3.00;3.00;;;;;-143.90;51.12;74177.94;4986384;28;101908;-87
2023/08/08 11:05:35;;;;;;;;;3.00;3.00;;;;;-143.90;49.81;74196.53;4985816;28;104007;-87
2023/08/08 11:08:06;;;;;;;;;5.00;5.00;;;;;-143.90;50.88;74211.00;4985406;28;102136;-83
2023/08/08 11:10:40;;;;;;;;;6.67;6.00;;;;;-143.90;48.84;74231.66;4984686;28;102361;-84
2023/08/08 11:13:08;;;;;;;;;5.00;5.00;;;;;-143.90;47.98;74244.06;4978630;28;101879;-87
2023/08/08 11:15:37;;;;;;;;;3.00;3.00;;;;;-143.90;49.23;74239.94;4979011;28;103984;-82
2023/08/08 11:18:06;;;;;;;;;3.00;3.00;;;;;-143.90;48.96;74225.47;4973479;28;102229;-84